Hartwick, IA (52232)

6:41 PM CDT on June 29, 2015 (GMT -0500)
503Farms | | Change Station
CLOSE
Current Station
Personal Weather Station
Location: Belle Plaine, IA
Elevation: 883 ft
Nearby Weather Stations

Elev 883 ft 41.95 °N, 92.25 °W | Updated 4 minutes ago

Clear
Clear
77.9 °F
Feels Like 80 °F
N
0.0
Wind Variable Wind from WSW

Today
High -- | Low -- °F
--% Chance of Precip.
Yesterday
High -- | Low -- °F
Precip. -- in
5:37 AM 8:48 PM
Waxing Gibbous, 95% visible
Pressure 29.86 in
Visibility 10.0 miles
Clouds Clear
Heat Index 80 °F
Dew Point 63 °F
Humidity 61%
Rainfall 0.00 in
Snow Depth Not available.
UV 2 out of 12
Pollen 4.00 out of 12
Air Quality Not available.
Flu Activity No Activity
METAR KGGI 292335Z AUTO 28005KT 10SM CLR 25/19 A2986 RMK AO2 T02470188

More Conditions Fewer Conditions

Pressure 29.86 in
Visibility 10.0 miles
Clouds Clear
Heat Index 80 °F
Dew Point 63 °F
Humidity 61%
Rainfall 0.00 in
Snow Depth Not available.
UV 2 out of 12
Pollen 4.00 out of 12
Air Quality Not available.
Flu Activity No Activity
METAR KGGI 292335Z AUTO 28005KT 10SM CLR 25/19 A2986 RMK AO2 T02470188

More Conditions Fewer Conditions

10-Day Weather Forecast

×

Almanac

Astronomy

Jun. 29, 2015 Rise Set
Actual Time
Civil Twilight
Nautical Twilight
Astronomical Twilight
Moon
Length of Visible Light
Length of Day
Tomorrow will be .
, % of the Moon is Illuminated

Today's Extremes

State Highs State Lows

Community

WunderPhotos

Upload Photos

1,833,887 photos uploaded!

WunderBlogs® & News

Nearby

Air Quality

  Air Quality AQ Index Pollutant
Not available.

Snow Depth

Station Depth Elevation

Earthquake Activity

City Distance Mag. Time & Date
Minimum magnitude displayed is 2.5.

Coastal Water Temperatures

Place Temperature

Stations

Nearby Weather Stations

Station Location Temp. Windchill Dew Point Humidity Wind Precip. Elev Updated Type